Time;durP1;ratioP1;P1;durP2;ratioP2;P2;SDS_P1;SDS_P2;PMS_P1;PMS_P2;Temp;Humidity;BMP_temperature;BMP_pressure;BME280_temperature;BME280_humidity;BME280_pressure;Samples;Min_cycle;Max_cycle;Signal;HPM_P1;HPM_P2
2023/06/04 00:02:19;;;;;;;4.73;4.30;;;;;;;;;;5044318;28;20205;-81
2023/06/04 00:04:46;;;;;;;4.83;3.93;;;;;;;;;;5048965;28;20265;-80
2023/06/04 00:07:13;;;;;;;4.13;3.80;;;;;;;;;;5049583;28;20209;-81
2023/06/04 00:09:39;;;;;;;5.00;4.33;;;;;;;;;;5048857;28;20229;-81
2023/06/04 00:12:08;;;;;;;4.37;3.87;;;;;;;;;;5049185;28;20617;-80
2023/06/04 00:14:35;;;;;;;4.60;4.17;;;;;;;;;;5049465;28;20201;-81
2023/06/04 00:17:01;;;;;;;4.83;4.30;;;;;;;;;;5048541;28;20244;-81
2023/06/04 00:19:28;;;;;;;6.30;4.97;;;;;;;;;;5049739;28;20376;-81
2023/06/04 00:21:55;;;;;;;3.63;3.43;;;;;;;;;;5049734;28;20210;-81
2023/06/04 00:24:22;;;;;;;4.17;3.87;;;;;;;;;;5045974;28;20198;-80
2023/06/04 00:26:49;;;;;;;4.30;3.87;;;;;;;;;;5038704;28;20260;-81
2023/06/04 00:29:17;;;;;;;4.10;3.80;;;;;;;;;;5048754;28;20221;-81
2023/06/04 00:31:44;;;;;;;8.57;4.30;;;;;;;;;;5049404;28;20206;-80
2023/06/04 00:34:11;;;;;;;4.80;4.40;;;;;;;;;;5048732;28;20205;-81
2023/06/04 00:36:38;;;;;;;5.80;4.47;;;;;;;;;;5049309;28;20588;-80
2023/06/04 00:39:04;;;;;;;5.27;4.40;;;;;;;;;;5049415;28;20579;-80
2023/06/04 00:41:31;;;;;;;5.30;4.63;;;;;;;;;;5048550;28;20209;-80
2023/06/04 00:44:01;;;;;;;4.37;3.80;;;;;;;;;;5048632;28;20210;-81
2023/06/04 00:46:31;;;;;;;6.43;4.23;;;;;;;;;;5049008;28;20210;-80
2023/06/04 00:48:57;;;;;;;4.60;4.20;;;;;;;;;;5048781;28;20233;-80
2023/06/04 00:51:24;;;;;;;4.67;4.27;;;;;;;;;;5049106;28;20210;-81
2023/06/04 00:53:51;;;;;;;5.80;4.10;;;;;;;;;;5048497;28;20217;-81
2023/06/04 00:56:18;;;;;;;4.63;4.23;;;;;;;;;;5048611;28;20213;-80
2023/06/04 00:58:46;;;;;;;4.40;4.00;;;;;;;;;;5035539;28;20205;-80
2023/06/04 01:01:18;;;;;;;5.20;4.70;;;;;;;;;;5048947;28;20206;-80
2023/06/04 01:03:48;;;;;;;6.20;3.97;;;;;;;;;;5048676;28;20202;-80
2023/06/04 01:06:21;;;;;;;4.03;3.67;;;;;;;;;;5047840;28;20684;-81
2023/06/04 01:08:48;;;;;;;4.53;4.13;;;;;;;;;;5048628;28;20694;-80
2023/06/04 01:11:15;;;;;;;5.90;4.57;;;;;;;;;;5048810;28;20202;-81
2023/06/04 01:13:42;;;;;;;4.43;4.13;;;;;;;;;;5048849;28;20228;-81
2023/06/04 01:16:10;;;;;;;4.00;3.70;;;;;;;;;;5047969;28;20202;-80
2023/06/04 01:18:38;;;;;;;5.57;4.53;;;;;;;;;;5048073;28;20202;-80
2023/06/04 01:21:08;;;;;;;4.97;3.97;;;;;;;;;;5048523;28;20197;-81
2023/06/04 01:23:39;;;;;;;5.63;4.70;;;;;;;;;;5048304;28;20355;-81
2023/06/04 01:26:06;;;;;;;5.23;4.80;;;;;;;;;;5047826;28;20211;-80
2023/06/04 01:28:35;;;;;;;6.17;4.70;;;;;;;;;;5048443;28;20202;-81
2023/06/04 01:31:02;;;;;;;5.10;4.50;;;;;;;;;;5047981;28;20769;-80
2023/06/04 01:33:29;;;;;;;4.70;4.30;;;;;;;;;;5048063;28;20324;-80
2023/06/04 01:35:56;;;;;;;4.60;4.20;;;;;;;;;;5048222;28;20743;-81
2023/06/04 01:38:24;;;;;;;8.60;5.33;;;;;;;;;;5047813;28;20209;-81
2023/06/04 01:40:55;;;;;;;6.87;4.83;;;;;;;;;;5048004;28;20209;-81
2023/06/04 01:43:25;;;;;;;5.40;4.63;;;;;;;;;;5048122;28;20207;-81
2023/06/04 01:45:51;;;;;;;4.87;4.40;;;;;;;;;;5047894;28;20692;-81
2023/06/04 01:48:18;;;;;;;5.37;4.67;;;;;;;;;;5034588;28;20240;-80
2023/06/04 01:50:45;;;;;;;5.50;4.43;;;;;;;;;;5022417;28;20257;-81
2023/06/04 01:53:12;;;;;;;5.03;4.53;;;;;;;;;;5047503;28;20213;-80
2023/06/04 01:55:40;;;;;;;5.83;4.27;;;;;;;;;;5048036;28;20581;-81
2023/06/04 01:58:07;;;;;;;6.33;4.73;;;;;;;;;;5046782;28;20687;-80
2023/06/04 02:00:33;;;;;;;11.13;4.67;;;;;;;;;;5040251;28;20215;-80
2023/06/04 02:03:00;;;;;;;5.07;4.57;;;;;;;;;;5041856;28;20201;-81
2023/06/04 02:05:27;;;;;;;5.13;4.70;;;;;;;;;;5048145;28;20686;-81
2023/06/04 02:07:54;;;;;;;5.73;4.63;;;;;;;;;;5047890;28;20208;-81
2023/06/04 02:10:21;;;;;;;4.50;4.10;;;;;;;;;;5047126;28;20383;-81
2023/06/04 02:12:59;;;;;;;5.40;4.33;;;;;;;;;;5047947;27;20723;-81
2023/06/04 02:15:26;;;;;;;7.17;4.17;;;;;;;;;;5047475;28;20679;-81
2023/06/04 02:17:58;;;;;;;4.30;3.97;;;;;;;;;;5047508;28;20201;-80
2023/06/04 02:20:24;;;;;;;6.73;5.37;;;;;;;;;;5047825;28;20226;-81
2023/06/04 02:22:51;;;;;;;5.87;5.27;;;;;;;;;;5047273;28;20728;-81
2023/06/04 02:25:18;;;;;;;5.37;4.87;;;;;;;;;;5048051;28;20223;-81
2023/06/04 02:27:45;;;;;;;35.10;23.70;;;;;;;;;;5046985;28;20201;-81
2023/06/04 02:30:13;;;;;;;13.63;10.40;;;;;;;;;;5047382;28;20229;-81
2023/06/04 02:32:40;;;;;;;6.67;6.03;;;;;;;;;;5047272;28;20702;-81
2023/06/04 02:35:07;;;;;;;5.90;4.40;;;;;;;;;;5036207;28;20214;-81
2023/06/04 02:37:34;;;;;;;4.97;4.23;;;;;;;;;;5032523;28;20622;-81
2023/06/04 02:40:01;;;;;;;8.00;4.13;;;;;;;;;;5047550;28;20261;-81
2023/06/04 02:42:28;;;;;;;6.07;3.77;;;;;;;;;;5047013;28;20209;-81
2023/06/04 02:44:54;;;;;;;4.60;4.20;;;;;;;;;;5047333;28;20752;-81
2023/06/04 02:47:22;;;;;;;6.17;5.57;;;;;;;;;;5047043;28;20202;-81
2023/06/04 02:49:49;;;;;;;9.17;5.60;;;;;;;;;;5048757;28;20285;-81
2023/06/04 02:52:16;;;;;;;6.17;5.60;;;;;;;;;;5050846;28;20193;-82
2023/06/04 02:54:42;;;;;;;6.73;6.13;;;;;;;;;;5044067;28;20262;-82
2023/06/04 02:57:09;;;;;;;6.17;5.67;;;;;;;;;;5035279;28;20263;-82
2023/06/04 02:59:36;;;;;;;9.63;5.87;;;;;;;;;;5036648;28;20295;-81
2023/06/04 03:02:03;;;;;;;7.07;5.37;;;;;;;;;;5050501;28;20202;-82
2023/06/04 03:04:34;;;;;;;4.93;4.50;;;;;;;;;;5051138;28;20197;-82
2023/06/04 03:07:02;;;;;;;6.07;3.90;;;;;;;;;;5050849;28;20210;-82
2023/06/04 03:09:29;;;;;;;7.43;4.97;;;;;;;;;;5037043;28;20199;-82
2023/06/04 03:12:00;;;;;;;5.63;5.10;;;;;;;;;;5050632;28;20265;-82
2023/06/04 03:14:31;;;;;;;7.00;4.23;;;;;;;;;;5050666;28;20624;-82
2023/06/04 03:17:00;;;;;;;5.37;4.47;;;;;;;;;;5050762;28;20204;-82
2023/06/04 03:19:27;;;;;;;5.30;4.40;;;;;;;;;;5049124;28;20194;-82
2023/06/04 03:21:56;;;;;;;5.53;4.00;;;;;;;;;;5050293;28;20651;-82
2023/06/04 03:24:23;;;;;;;4.80;3.57;;;;;;;;;;5026491;28;20680;-82
2023/06/04 03:26:50;;;;;;;4.43;4.03;;;;;;;;;;5028619;28;20638;-81
2023/06/04 03:29:16;;;;;;;6.70;4.30;;;;;;;;;;5050204;28;20206;-82
2023/06/04 03:31:45;;;;;;;4.30;3.90;;;;;;;;;;5050014;28;20226;-82
2023/06/04 03:34:12;;;;;;;5.03;4.03;;;;;;;;;;5050133;28;20643;-82
2023/06/04 03:36:39;;;;;;;5.00;4.50;;;;;;;;;;5050328;28;20265;-82
2023/06/04 03:39:07;;;;;;;6.00;4.20;;;;;;;;;;5049922;28;20259;-83
2023/06/04 03:41:34;;;;;;;4.40;4.00;;;;;;;;;;5032771;28;20208;-81
2023/06/04 03:44:01;;;;;;;10.23;4.70;;;;;;;;;;5049805;28;20205;-80
2023/06/04 03:46:31;;;;;;;4.27;3.90;;;;;;;;;;5049504;28;20264;-81
2023/06/04 03:48:58;;;;;;;6.87;4.13;;;;;;;;;;5037385;28;20279;-82
2023/06/04 03:51:24;;;;;;;5.07;4.67;;;;;;;;;;5048413;28;20230;-81
2023/06/04 03:53:52;;;;;;;5.03;4.23;;;;;;;;;;5049782;28;20206;-81
2023/06/04 03:56:21;;;;;;;5.47;4.00;;;;;;;;;;5049981;28;20262;-80
2023/06/04 03:58:48;;;;;;;4.77;4.37;;;;;;;;;;5049223;28;20676;-80
2023/06/04 04:01:15;;;;;;;4.43;4.03;;;;;;;;;;5048552;28;20210;-79
2023/06/04 04:03:42;;;;;;;5.20;4.30;;;;;;;;;;5048990;28;20244;-80
2023/06/04 04:06:11;;;;;;;6.13;5.53;;;;;;;;;;5049829;28;20258;-80
2023/06/04 04:08:42;;;;;;;6.23;4.70;;;;;;;;;;5049043;28;20210;-79
2023/06/04 04:11:08;;;;;;;5.93;5.33;;;;;;;;;;5049389;28;20703;-79
2023/06/04 04:13:36;;;;;;;8.30;7.30;;;;;;;;;;5044312;28;20574;-80
2023/06/04 04:16:03;;;;;;;5.20;4.50;;;;;;;;;;5049622;28;20233;-80
2023/06/04 04:18:34;;;;;;;13.50;12.17;;;;;;;;;;5048556;28;20205;-80
2023/06/04 04:21:01;;;;;;;23.60;21.37;;;;;;;;;;5049425;28;20281;-80
2023/06/04 04:23:29;;;;;;;24.80;21.53;;;;;;;;;;5048607;28;20209;-80
2023/06/04 04:25:58;;;;;;;6.73;5.70;;;;;;;;;;5048477;28;20201;-80
2023/06/04 04:28:28;;;;;;;5.90;4.73;;;;;;;;;;5048295;28;20212;-80
2023/06/04 04:30:57;;;;;;;4.90;4.50;;;;;;;;;;5048190;28;20240;-80
2023/06/04 04:33:25;;;;;;;7.73;4.83;;;;;;;;;;5049330;28;20633;-80
2023/06/04 04:35:53;;;;;;;4.77;4.37;;;;;;;;;;5048039;28;20692;-80
2023/06/04 04:38:23;;;;;;;9.83;5.50;;;;;;;;;;5048365;28;20237;-80
2023/06/04 04:40:51;;;;;;;5.30;4.80;;;;;;;;;;5047886;28;20205;-79
2023/06/04 04:43:29;;;;;;;4.60;4.20;;;;;;;;;;5047717;28;20684;-80
2023/06/04 04:45:57;;;;;;;4.80;4.33;;;;;;;;;;5048408;28;20288;-80
2023/06/04 04:48:25;;;;;;;8.23;4.60;;;;;;;;;;5047728;28;20241;-80
2023/06/04 04:50:52;;;;;;;7.30;4.53;;;;;;;;;;5048656;28;20730;-80
2023/06/04 04:53:19;;;;;;;6.27;4.40;;;;;;;;;;5048348;28;20206;-80
2023/06/04 04:55:45;;;;;;;8.83;4.37;;;;;;;;;;5049518;28;20208;-79
2023/06/04 04:58:12;;;;;;;4.60;4.30;;;;;;;;;;5048739;28;20211;-80
2023/06/04 05:00:39;;;;;;;6.60;5.20;;;;;;;;;;5049309;28;20210;-79
2023/06/04 05:03:07;;;;;;;6.03;4.57;;;;;;;;;;5048726;28;20205;-80
2023/06/04 05:05:34;;;;;;;7.77;5.63;;;;;;;;;;5048934;28;20201;-80
2023/06/04 05:08:01;;;;;;;5.57;4.90;;;;;;;;;;5048290;28;20558;-79
2023/06/04 05:10:28;;;;;;;6.57;4.80;;;;;;;;;;5048632;28;20297;-80
2023/06/04 05:12:55;;;;;;;4.30;4.00;;;;;;;;;;5047640;28;20761;-80
2023/06/04 05:15:22;;;;;;;6.13;4.57;;;;;;;;;;5048558;28;20204;-80
2023/06/04 05:17:48;;;;;;;5.03;4.00;;;;;;;;;;5047927;28;20218;-80
2023/06/04 05:20:17;;;;;;;5.60;5.10;;;;;;;;;;5048134;28;20216;-80
2023/06/04 05:22:45;;;;;;;5.80;5.30;;;;;;;;;;5047392;28;20259;-80
2023/06/04 05:25:12;;;;;;;6.80;5.00;;;;;;;;;;5048719;28;20203;-79
2023/06/04 05:27:40;;;;;;;8.37;5.67;;;;;;;;;;5048298;28;20202;-79
2023/06/04 05:30:08;;;;;;;5.20;4.67;;;;;;;;;;5048206;28;20661;-80
2023/06/04 05:32:40;;;;;;;5.20;4.27;;;;;;;;;;5048172;28;20205;-79
2023/06/04 05:35:08;;;;;;;8.80;4.63;;;;;;;;;;5047859;28;20217;-79
2023/06/04 05:37:37;;;;;;;4.87;4.47;;;;;;;;;;5048251;28;20262;-80
2023/06/04 05:40:07;;;;;;;5.30;4.33;;;;;;;;;;5048173;28;20738;-80
2023/06/04 05:42:33;;;;;;;7.63;5.23;;;;;;;;;;5047467;28;20198;-80
2023/06/04 05:45:00;;;;;;;7.53;4.93;;;;;;;;;;5048795;28;20213;-81
2023/06/04 05:47:29;;;;;;;5.27;4.87;;;;;;;;;;5048346;28;20258;-82
2023/06/04 05:49:56;;;;;;;4.93;4.40;;;;;;;;;;5047612;27;20586;-82
2023/06/04 05:52:24;;;;;;;5.60;4.13;;;;;;;;;;5027943;28;20305;-82
2023/06/04 05:54:52;;;;;;;4.63;4.17;;;;;;;;;;5041992;28;20210;-82
2023/06/04 05:57:19;;;;;;;6.70;4.90;;;;;;;;;;5048238;28;20202;-82
2023/06/04 05:59:46;;;;;;;7.33;5.10;;;;;;;;;;5048087;28;20266;-82
2023/06/04 06:02:14;;;;;;;8.83;5.07;;;;;;;;;;5018159;28;20243;-82
2023/06/04 06:04:41;;;;;;;5.90;5.40;;;;;;;;;;5038644;28;20209;-82
2023/06/04 06:07:08;;;;;;;17.13;14.50;;;;;;;;;;5046994;28;20221;-82
2023/06/04 06:09:35;;;;;;;21.93;19.57;;;;;;;;;;5049988;28;20206;-82
2023/06/04 06:12:05;;;;;;;10.20;9.23;;;;;;;;;;5042341;28;20257;-82
2023/06/04 06:14:32;;;;;;;7.07;5.30;;;;;;;;;;5047330;28;20274;-83
2023/06/04 06:17:00;;;;;;;6.37;4.97;;;;;;;;;;5052634;28;20219;-83
2023/06/04 06:19:27;;;;;;;5.53;5.03;;;;;;;;;;5052448;28;20202;-83
2023/06/04 06:21:55;;;;;;;7.97;5.20;;;;;;;;;;5033852;28;20217;-84
2023/06/04 06:24:23;;;;;;;5.43;4.83;;;;;;;;;;5051028;28;20258;-83
2023/06/04 06:26:50;;;;;;;7.77;5.83;;;;;;;;;;5052119;28;20197;-83
2023/06/04 06:29:18;;;;;;;6.00;5.50;;;;;;;;;;5051037;28;20693;-83
2023/06/04 06:31:45;;;;;;;9.50;5.80;;;;;;;;;;5051690;28;20225;-83
2023/06/04 06:34:12;;;;;;;9.23;8.07;;;;;;;;;;5051822;28;20194;-84
2023/06/04 06:36:39;;;;;;;10.43;9.33;;;;;;;;;;5050768;28;20213;-83
2023/06/04 06:39:05;;;;;;;14.43;13.03;;;;;;;;;;5050936;28;20202;-82
2023/06/04 06:41:32;;;;;;;11.60;10.47;;;;;;;;;;5050958;28;20193;-83
2023/06/04 06:43:59;;;;;;;7.67;6.97;;;;;;;;;;5050274;28;20202;-83
2023/06/04 06:46:27;;;;;;;7.00;5.20;;;;;;;;;;5049433;28;20202;-83
2023/06/04 06:48:54;;;;;;;5.40;4.90;;;;;;;;;;5050721;28;20575;-83
2023/06/04 06:51:21;;;;;;;13.20;5.90;;;;;;;;;;5051211;28;20237;-82
2023/06/04 06:53:49;;;;;;;4.60;4.20;;;;;;;;;;5050640;28;20202;-82
2023/06/04 06:56:18;;;;;;;12.80;6.80;;;;;;;;;;5051071;28;20206;-83
2023/06/04 06:58:47;;;;;;;7.50;6.60;;;;;;;;;;5044281;28;20207;-83
2023/06/04 07:01:15;;;;;;;11.13;9.73;;;;;;;;;;5042947;28;20257;-82
2023/06/04 07:03:43;;;;;;;6.47;5.87;;;;;;;;;;5050901;28;20206;-85
2023/06/04 07:06:10;;;;;;;6.63;5.93;;;;;;;;;;5050686;28;20209;-83
2023/06/04 07:08:40;;;;;;;6.23;5.63;;;;;;;;;;5049990;27;20292;-81
2023/06/04 07:11:06;;;;;;;9.23;7.90;;;;;;;;;;5050817;28;20307;-80
2023/06/04 07:13:35;;;;;;;6.87;5.83;;;;;;;;;;5050550;28;20202;-82
2023/06/04 07:16:02;;;;;;;9.03;8.23;;;;;;;;;;5050748;28;20560;-81
2023/06/04 07:18:29;;;;;;;17.40;14.50;;;;;;;;;;5049760;28;20208;-82
2023/06/04 07:20:58;;;;;;;16.30;12.83;;;;;;;;;;5049935;28;20648;-80
2023/06/04 07:23:25;;;;;;;9.83;9.03;;;;;;;;;;5050225;28;20225;-82
2023/06/04 07:25:52;;;;;;;10.33;9.43;;;;;;;;;;5050301;28;20583;-80
2023/06/04 07:28:19;;;;;;;9.57;8.43;;;;;;;;;;5049811;28;20684;-82
2023/06/04 07:30:46;;;;;;;10.17;8.67;;;;;;;;;;5049386;28;20206;-84
2023/06/04 07:33:13;;;;;;;8.00;7.20;;;;;;;;;;5049872;28;20589;-82
2023/06/04 07:35:40;;;;;;;6.87;6.30;;;;;;;;;;5049184;28;20199;-83
2023/06/04 07:38:10;;;;;;;7.17;6.57;;;;;;;;;;5048423;28;20209;-83
2023/06/04 07:40:38;;;;;;;9.70;6.63;;;;;;;;;;5050270;28;20198;-83
2023/06/04 07:43:05;;;;;;;7.43;6.83;;;;;;;;;;5049789;28;20746;-83
2023/06/04 07:45:32;;;;;;;7.83;7.10;;;;;;;;;;5032443;28;20202;-83
2023/06/04 07:47:59;;;;;;;9.77;8.87;;;;;;;;;;5048798;28;20228;-83
2023/06/04 07:50:26;;;;;;;8.47;7.50;;;;;;;;;;5049509;28;20221;-83
2023/06/04 07:52:53;;;;;;;6.90;6.30;;;;;;;;;;5049393;28;20229;-82
2023/06/04 07:55:21;;;;;;;6.37;5.87;;;;;;;;;;5032611;28;20202;-83
2023/06/04 07:57:48;;;;;;;9.33;6.40;;;;;;;;;;5049853;28;20209;-82
2023/06/04 08:00:17;;;;;;;9.73;8.73;;;;;;;;;;5049362;28;20586;-83
2023/06/04 08:02:44;;;;;;;10.57;7.83;;;;;;;;;;5022734;28;20210;-83
2023/06/04 08:05:13;;;;;;;10.63;9.63;;;;;;;;;;5030328;28;20205;-83
2023/06/04 08:07:40;;;;;;;7.53;6.87;;;;;;;;;;5049200;28;20643;-83
2023/06/04 08:10:08;;;;;;;8.00;7.30;;;;;;;;;;5037922;28;20207;-82
2023/06/04 08:12:36;;;;;;;11.23;10.27;;;;;;;;;;5034175;28;20228;-83
2023/06/04 08:15:04;;;;;;;11.70;10.70;;;;;;;;;;5049340;28;20634;-83
2023/06/04 08:17:31;;;;;;;11.17;9.80;;;;;;;;;;5048788;28;20211;-82
2023/06/04 08:19:58;;;;;;;15.53;14.13;;;;;;;;;;5036444;28;20599;-82
2023/06/04 08:22:24;;;;;;;15.43;14.07;;;;;;;;;;5048611;28;20230;-82
2023/06/04 08:24:51;;;;;;;24.30;21.97;;;;;;;;;;5042471;28;20206;-83
2023/06/04 08:27:18;;;;;;;13.73;12.47;;;;;;;;;;5043249;28;20752;-82
2023/06/04 08:29:46;;;;;;;8.60;7.50;;;;;;;;;;5049092;28;20220;-83
2023/06/04 08:32:13;;;;;;;6.93;6.27;;;;;;;;;;5048729;28;20281;-82
2023/06/04 08:34:40;;;;;;;6.10;5.50;;;;;;;;;;5048713;28;20205;-85
2023/06/04 08:37:08;;;;;;;6.73;6.13;;;;;;;;;;5048923;28;20205;-82
2023/06/04 08:39:35;;;;;;;7.30;6.67;;;;;;;;;;5041215;28;20234;-83
2023/06/04 08:42:03;;;;;;;6.87;6.27;;;;;;;;;;5043758;28;20209;-83
2023/06/04 08:44:31;;;;;;;7.27;6.60;;;;;;;;;;5049342;28;20259;-83
2023/06/04 08:47:06;;;;;;;7.37;6.77;;;;;;;;;;5048542;28;20227;-83
2023/06/04 08:49:36;;;;;;;8.63;5.20;;;;;;;;;;5038394;28;20226;-83
2023/06/04 08:52:03;;;;;;;6.43;5.90;;;;;;;;;;5033744;28;20853;-83
2023/06/04 08:54:30;;;;;;;7.57;5.63;;;;;;;;;;5049127;28;20209;-83
2023/06/04 08:56:58;;;;;;;5.17;4.77;;;;;;;;;;5049092;28;20210;-83
2023/06/04 08:59:25;;;;;;;5.80;5.23;;;;;;;;;;5048939;28;20291;-83
2023/06/04 09:01:53;;;;;;;6.40;5.80;;;;;;;;;;5047960;28;20768;-84
2023/06/04 09:04:21;;;;;;;7.13;5.53;;;;;;;;;;5049073;28;20206;-83
2023/06/04 09:06:49;;;;;;;7.63;5.50;;;;;;;;;;5022263;28;20262;-83
2023/06/04 09:09:17;;;;;;;5.57;5.10;;;;;;;;;;5048484;28;20209;-83
2023/06/04 09:11:47;;;;;;;5.20;4.80;;;;;;;;;;5048370;28;20643;-83
2023/06/04 09:14:17;;;;;;;6.53;6.03;;;;;;;;;;5035794;28;20211;-83
2023/06/04 09:16:45;;;;;;;5.90;5.37;;;;;;;;;;5042155;28;20203;-83
2023/06/04 09:19:12;;;;;;;5.93;5.43;;;;;;;;;;5042186;28;20220;-83
2023/06/04 09:21:51;;;;;;;7.10;5.70;;;;;;;;;;5048475;28;20209;-83
2023/06/04 09:24:18;;;;;;;5.70;5.23;;;;;;;;;;5034808;28;20270;-83
2023/06/04 09:26:46;;;;;;;6.67;6.03;;;;;;;;;;5048153;28;20261;-83
2023/06/04 09:29:12;;;;;;;8.33;6.07;;;;;;;;;;5048712;28;20201;-83
2023/06/04 09:31:40;;;;;;;5.90;5.37;;;;;;;;;;5048127;28;20222;-83
2023/06/04 09:34:09;;;;;;;7.30;5.37;;;;;;;;;;5048183;28;20202;-83
2023/06/04 09:36:36;;;;;;;7.00;6.33;;;;;;;;;;5038202;28;20202;-83
2023/06/04 09:39:16;;;;;;;7.97;5.53;;;;;;;;;;5045315;28;20224;-83
2023/06/04 09:41:44;;;;;;;6.07;5.47;;;;;;;;;;5048065;28;20764;-82
2023/06/04 09:44:16;;;;;;;6.60;5.80;;;;;;;;;;5047884;28;20198;-83
2023/06/04 09:46:43;;;;;;;6.60;5.87;;;;;;;;;;5035102;28;20290;-83
2023/06/04 09:49:14;;;;;;;8.80;7.03;;;;;;;;;;5021778;28;20245;-83
2023/06/04 09:51:57;;;;;;;9.00;6.63;;;;;;;;;;5036453;28;20302;-82
2023/06/04 09:54:37;;;;;;;7.27;6.40;;;;;;;;;;5037182;28;20209;-83
2023/06/04 09:57:05;;;;;;;6.90;6.27;;;;;;;;;;5047813;28;20208;-83
2023/06/04 09:59:34;;;;;;;7.23;6.53;;;;;;;;;;5046825;28;20237;-83
2023/06/04 10:02:01;;;;;;;7.10;6.13;;;;;;;;;;5033926;28;20218;-82
2023/06/04 10:04:33;;;;;;;6.90;5.70;;;;;;;;;;5037599;28;20240;-83
2023/06/04 10:07:01;;;;;;;6.10;5.50;;;;;;;;;;5043786;28;20213;-82
2023/06/04 10:09:30;;;;;;;7.07;6.47;;;;;;;;;;5038366;28;20642;-82
2023/06/04 10:12:01;;;;;;;8.43;7.40;;;;;;;;;;5039657;28;20625;-83
2023/06/04 10:14:33;;;;;;;8.87;6.47;;;;;;;;;;5039226;28;20210;-82
2023/06/04 10:17:01;;;;;;;6.67;6.17;;;;;;;;;;5047698;28;20680;-83
2023/06/04 10:19:28;;;;;;;7.80;5.87;;;;;;;;;;5047282;28;20231;-83
2023/06/04 10:21:56;;;;;;;8.90;6.10;;;;;;;;;;5047812;28;20212;-83
2023/06/04 10:24:26;;;;;;;7.00;6.40;;;;;;;;;;5046059;28;20640;-83
2023/06/04 10:26:55;;;;;;;9.27;7.37;;;;;;;;;;5047394;28;20288;-83
2023/06/04 10:29:23;;;;;;;7.60;7.00;;;;;;;;;;5047504;28;20584;-83
2023/06/04 10:31:50;;;;;;;7.30;6.20;;;;;;;;;;5035831;28;20719;-82
2023/06/04 10:34:18;;;;;;;9.13;6.00;;;;;;;;;;5045717;28;20691;-83
2023/06/04 10:36:45;;;;;;;8.47;7.27;;;;;;;;;;5034704;28;20207;-83
2023/06/04 10:39:12;;;;;;;8.50;6.03;;;;;;;;;;5046481;28;20262;-83
2023/06/04 10:41:40;;;;;;;7.07;6.20;;;;;;;;;;5047685;27;20214;-83
2023/06/04 10:44:12;;;;;;;7.47;6.73;;;;;;;;;;5047450;28;20206;-83
2023/06/04 10:46:41;;;;;;;6.80;6.20;;;;;;;;;;5047103;28;20234;-83
2023/06/04 10:49:10;;;;;;;7.43;6.30;;;;;;;;;;5047354;28;20238;-83
2023/06/04 10:51:37;;;;;;;9.83;6.10;;;;;;;;;;5039663;28;20290;-82
2023/06/04 10:54:11;;;;;;;7.30;6.60;;;;;;;;;;5046993;28;20316;-83
2023/06/04 10:56:38;;;;;;;8.17;6.47;;;;;;;;;;5046767;28;20259;-82
2023/06/04 10:59:16;;;;;;;7.33;6.40;;;;;;;;;;5047349;28;20258;-82
2023/06/04 11:01:44;;;;;;;8.13;6.10;;;;;;;;;;5033211;28;20198;-82
2023/06/04 11:04:22;;;;;;;6.63;5.97;;;;;;;;;;5047551;28;20209;-82
2023/06/04 11:06:49;;;;;;;7.00;6.27;;;;;;;;;;5047225;28;20198;-82
2023/06/04 11:09:16;;;;;;;7.93;5.53;;;;;;;;;;5046890;28;20753;-82
2023/06/04 11:11:44;;;;;;;6.87;4.93;;;;;;;;;;5049784;28;20703;-82
2023/06/04 11:14:12;;;;;;;7.23;6.53;;;;;;;;;;5050660;28;20286;-82
2023/06/04 11:16:40;;;;;;;5.60;5.10;;;;;;;;;;5050402;28;20209;-81
2023/06/04 11:19:07;;;;;;;6.07;5.53;;;;;;;;;;5050160;28;20681;-82
2023/06/04 11:21:36;;;;;;;19.13;6.80;;;;;;;;;;5050487;28;20564;-82
2023/06/04 11:24:04;;;;;;;10.07;5.30;;;;;;;;;;5050307;28;20202;-81
2023/06/04 11:26:32;;;;;;;4.83;4.40;;;;;;;;;;5050582;28;20202;-81
2023/06/04 11:28:59;;;;;;;5.93;4.27;;;;;;;;;;5049679;28;20363;-81
2023/06/04 11:31:25;;;;;;;5.13;4.00;;;;;;;;;;5050308;28;20214;-82
2023/06/04 11:33:54;;;;;;;5.40;4.90;;;;;;;;;;5049750;28;20240;-81
2023/06/04 11:36:25;;;;;;;4.90;4.50;;;;;;;;;;5042239;28;20214;-81
2023/06/04 11:38:58;;;;;;;7.00;4.87;;;;;;;;;;5045795;28;20363;-82
2023/06/04 11:41:25;;;;;;;4.67;4.23;;;;;;;;;;5049983;28;20213;-81
2023/06/04 11:43:52;;;;;;;6.53;5.23;;;;;;;;;;5049831;28;20206;-81
2023/06/04 11:46:20;;;;;;;5.00;4.20;;;;;;;;;;5050115;28;20767;-81
2023/06/04 11:48:46;;;;;;;7.23;4.60;;;;;;;;;;5048973;28;20213;-81
2023/06/04 11:51:15;;;;;;;5.93;5.33;;;;;;;;;;5049912;28;20209;-81
2023/06/04 11:53:41;;;;;;;5.70;5.20;;;;;;;;;;5048721;28;20648;-81
2023/06/04 11:56:08;;;;;;;6.70;5.40;;;;;;;;;;5049526;28;20731;-81
2023/06/04 11:58:35;;;;;;;7.87;5.67;;;;;;;;;;5034985;28;20205;-81
2023/06/04 12:01:02;;;;;;;6.73;6.03;;;;;;;;;;5048458;28;20680;-81
2023/06/04 12:03:37;;;;;;;6.00;5.40;;;;;;;;;;5049176;28;20209;-82
2023/06/04 12:06:12;;;;;;;6.53;5.07;;;;;;;;;;5049356;28;20707;-80
2023/06/04 12:08:58;;;;;;;5.83;5.10;;;;;;;;;;5024868;28;20571;-81
2023/06/04 12:11:31;;;;;;;6.03;5.23;;;;;;;;;;5049551;28;20194;-81
2023/06/04 12:14:04;;;;;;;6.07;5.47;;;;;;;;;;5049381;28;20230;-81
2023/06/04 12:16:31;;;;;;;6.23;5.70;;;;;;;;;;5049745;28;20198;-81
2023/06/04 12:19:08;;;;;;;6.37;5.87;;;;;;;;;;5049479;28;20197;-80
2023/06/04 12:21:35;;;;;;;7.43;5.77;;;;;;;;;;5022689;28;20236;-81
2023/06/04 12:24:10;;;;;;;6.30;5.70;;;;;;;;;;5048825;28;20206;-81
2023/06/04 12:26:40;;;;;;;6.07;5.57;;;;;;;;;;5049016;28;20672;-80
2023/06/04 12:29:12;;;;;;;6.63;6.03;;;;;;;;;;5049311;28;20241;-81
2023/06/04 12:31:40;;;;;;;6.90;6.30;;;;;;;;;;5048806;28;20251;-81
2023/06/04 12:34:07;;;;;;;6.93;5.57;;;;;;;;;;5049487;28;20217;-80
2023/06/04 12:36:34;;;;;;;6.70;6.00;;;;;;;;;;5048487;28;20202;-81
2023/06/04 12:39:02;;;;;;;8.43;6.50;;;;;;;;;;5049179;28;20225;-81
2023/06/04 12:41:33;;;;;;;6.27;5.70;;;;;;;;;;5049099;28;20206;-82
2023/06/04 12:44:05;;;;;;;6.97;6.30;;;;;;;;;;5044000;28;20571;-81
2023/06/04 12:46:32;;;;;;;6.63;6.00;;;;;;;;;;5042011;28;20210;-81
2023/06/04 12:48:59;;;;;;;6.40;5.80;;;;;;;;;;5048219;28;20230;-81
2023/06/04 12:51:26;;;;;;;5.90;5.40;;;;;;;;;;5048555;28;20198;-81
2023/06/04 12:53:56;;;;;;;6.03;5.53;;;;;;;;;;5048827;28;20230;-81
2023/06/04 12:56:22;;;;;;;7.53;5.70;;;;;;;;;;5048926;28;20202;-81
2023/06/04 12:58:51;;;;;;;7.43;6.73;;;;;;;;;;5049098;28;20226;-80
2023/06/04 13:01:17;;;;;;;6.33;5.23;;;;;;;;;;5048311;28;20206;-81
2023/06/04 13:03:44;;;;;;;10.60;6.47;;;;;;;;;;5041072;28;20214;-80
2023/06/04 13:06:11;;;;;;;7.27;6.67;;;;;;;;;;5042350;28;20202;-80
2023/06/04 13:08:38;;;;;;;7.73;6.23;;;;;;;;;;5049015;28;20198;-80
2023/06/04 13:11:06;;;;;;;6.80;6.20;;;;;;;;;;5048909;28;20584;-81
2023/06/04 13:13:33;;;;;;;6.70;6.10;;;;;;;;;;5048475;28;20709;-81
2023/06/04 13:16:02;;;;;;;6.60;5.33;;;;;;;;;;5047755;28;20202;-80
2023/06/04 13:18:29;;;;;;;8.33;5.80;;;;;;;;;;5048498;28;20202;-81
2023/06/04 13:20:56;;;;;;;6.57;5.83;;;;;;;;;;5048415;28;20202;-81
2023/06/04 13:23:23;;;;;;;6.00;5.50;;;;;;;;;;5048495;28;20684;-81
2023/06/04 13:25:50;;;;;;;5.93;5.43;;;;;;;;;;5046756;28;20270;-80
2023/06/04 13:28:17;;;;;;;8.33;6.87;;;;;;;;;;5036750;28;20255;-79
2023/06/04 13:30:44;;;;;;;6.77;5.97;;;;;;;;;;5048058;28;20202;-80
2023/06/04 13:33:12;;;;;;;7.43;6.63;;;;;;;;;;5047835;28;20229;-81
2023/06/04 13:35:39;;;;;;;6.57;5.90;;;;;;;;;;5047536;28;20241;-81
2023/06/04 13:38:07;;;;;;;6.93;5.33;;;;;;;;;;5047764;28;20209;-80
2023/06/04 13:40:35;;;;;;;6.73;6.10;;;;;;;;;;5046579;28;20194;-81
2023/06/04 13:43:02;;;;;;;5.50;5.00;;;;;;;;;;5047868;28;20208;-81
2023/06/04 13:45:29;;;;;;;6.27;5.67;;;;;;;;;;5047499;28;20198;-80
2023/06/04 13:47:58;;;;;;;6.67;6.07;;;;;;;;;;5047315;28;20202;-81
2023/06/04 13:50:27;;;;;;;6.63;5.97;;;;;;;;;;5047835;28;20198;-80
2023/06/04 13:52:53;;;;;;;6.43;5.90;;;;;;;;;;5047034;28;20210;-80
2023/06/04 13:55:22;;;;;;;6.00;5.50;;;;;;;;;;5047230;28;20194;-80
2023/06/04 13:57:49;;;;;;;6.83;6.20;;;;;;;;;;5048298;28;20205;-80
2023/06/04 14:00:16;;;;;;;6.63;6.13;;;;;;;;;;5047401;28;20259;-81
2023/06/04 14:02:42;;;;;;;6.07;5.57;;;;;;;;;;5047965;28;20202;-80
2023/06/04 14:05:11;;;;;;;7.53;5.37;;;;;;;;;;5047778;28;20206;-80
2023/06/04 14:07:39;;;;;;;5.73;5.33;;;;;;;;;;5046215;28;20208;-81
2023/06/04 14:10:07;;;;;;;5.70;5.20;;;;;;;;;;5047090;28;20635;-81
2023/06/04 14:12:35;;;;;;;5.73;5.30;;;;;;;;;;5047422;28;20217;-81
2023/06/04 14:15:01;;;;;;;6.00;5.43;;;;;;;;;;5034525;28;20656;-81
2023/06/04 14:17:29;;;;;;;5.17;4.70;;;;;;;;;;5047303;28;20202;-81
2023/06/04 14:19:55;;;;;;;5.73;5.23;;;;;;;;;;5047210;28;20205;-80
2023/06/04 14:22:22;;;;;;;5.33;4.80;;;;;;;;;;5047416;28;20741;-81
2023/06/04 14:24:50;;;;;;;4.60;4.13;;;;;;;;;;5047571;28;20209;-80
2023/06/04 14:27:17;;;;;;;5.07;4.67;;;;;;;;;;5047194;28;20289;-80
2023/06/04 14:29:44;;;;;;;5.87;4.53;;;;;;;;;;5047636;28;20201;-81
2023/06/04 14:32:13;;;;;;;5.43;4.80;;;;;;;;;;5041341;28;20616;-80
2023/06/04 14:34:40;;;;;;;5.00;4.37;;;;;;;;;;5027611;28;20631;-81
2023/06/04 14:37:07;;;;;;;4.63;4.23;;;;;;;;;;5027391;28;20207;-81
2023/06/04 14:39:36;;;;;;;5.10;4.30;;;;;;;;;;5027495;28;20206;-81
2023/06/04 14:42:04;;;;;;;4.97;4.57;;;;;;;;;;5027517;28;20297;-81
2023/06/04 14:44:31;;;;;;;4.13;3.83;;;;;;;;;;5027228;28;20209;-81
2023/06/04 14:46:59;;;;;;;4.43;3.67;;;;;;;;;;5030897;28;20263;-81